Time;durP1;ratioP1;P1;durP2;ratioP2;P2;SDS_P1;SDS_P2;PMS_P1;PMS_P2;Temp;Humidity;BMP_temperature;BMP_pressure;BME280_temperature;BME280_humidity;BME280_pressure;Samples;Min_cycle;Max_cycle;Signal;HPM_P1;HPM_P2
2023/01/27 00:02:00;;;;;;;18.05;8.57;;;4.00;99.90;;;;;;5044589;28;20040;-56
2023/01/27 00:04:26;;;;;;;15.70;10.05;;;4.30;99.90;;;;;;5079184;28;20169;-57
2023/01/27 00:06:51;;;;;;;15.80;8.80;;;4.20;99.90;;;;;;5079158;28;20057;-57
2023/01/27 00:09:17;;;;;;;15.98;9.18;;;4.30;99.90;;;;;;5078797;28;20088;-57
2023/01/27 00:14:27;;;;;;;16.08;8.77;;;4.10;99.90;;;;;;5078871;28;20087;-57
2023/01/27 00:16:53;;;;;;;16.73;7.93;;;4.00;99.90;;;;;;5078867;28;20052;-57
2023/01/27 00:19:18;;;;;;;15.68;7.30;;;4.20;99.90;;;;;;5079063;28;20044;-57
2023/01/27 00:24:36;;;;;;;14.63;7.32;;;4.10;99.90;;;;;;5078762;28;20044;-57
2023/01/27 00:27:07;;;;;;;17.35;7.82;;;4.00;99.90;;;;;;5078616;28;20745;-58
2023/01/27 00:29:34;;;;;;;16.38;7.55;;;4.10;99.90;;;;;;5077548;28;20053;-57
2023/01/27 00:34:44;;;;;;;13.43;6.80;;;4.10;99.90;;;;;;5078813;28;20552;-57
2023/01/27 00:37:10;;;;;;;13.23;7.07;;;4.20;99.90;;;;;;5078572;28;20060;-57
2023/01/27 00:39:36;;;;;;;13.25;6.93;;;4.20;99.90;;;;;;5078083;28;20045;-56
2023/01/27 00:42:01;;;;;;;12.93;6.88;;;4.20;99.90;;;;;;5078356;28;20663;-57
2023/01/27 00:44:27;;;;;;;13.73;7.72;;;4.00;99.90;;;;;;5078501;28;20055;-56
2023/01/27 00:46:53;;;;;;;13.85;6.38;;;4.00;99.90;;;;;;5060592;28;20041;-56
2023/01/27 00:49:19;;;;;;;13.82;6.93;;;4.20;99.90;;;;;;5078792;28;20090;-56
2023/01/27 00:51:44;;;;;;;14.25;8.18;;;4.00;99.90;;;;;;5060460;28;20096;-56
2023/01/27 00:54:10;;;;;;;12.15;6.35;;;4.00;99.90;;;;;;5078081;28;20103;-56
2023/01/27 00:56:36;;;;;;;13.43;6.40;;;4.00;99.90;;;;;;5078508;28;20052;-57
2023/01/27 00:59:03;;;;;;;11.77;6.53;;;4.20;99.90;;;;;;5078281;28;20714;-56
2023/01/27 01:01:29;;;;;;;12.93;6.25;;;4.30;99.90;;;;;;5078501;28;20037;-57
2023/01/27 01:03:57;;;;;;;11.00;5.90;;;4.20;99.90;;;;;;5078400;28;20043;-57
2023/01/27 01:06:23;;;;;;;11.70;5.15;;;4.30;99.90;;;;;;5078707;28;20515;-57
2023/01/27 01:08:51;;;;;;;14.18;5.97;;;4.00;99.90;;;;;;5078540;28;20036;-57
2023/01/27 01:11:19;;;;;;;10.93;6.05;;;4.00;99.90;;;;;;5098574;28;20062;-57
2023/01/27 01:13:45;;;;;;;11.82;5.78;;;4.00;99.90;;;;;;5098509;28;20500;-57
2023/01/27 01:16:16;;;;;;;14.15;7.85;;;4.10;99.90;;;;;;5098245;28;20044;-56
2023/01/27 01:18:42;;;;;;;14.52;6.88;;;4.30;99.90;;;;;;5098240;28;20044;-56
2023/01/27 01:21:09;;;;;;;12.80;6.30;;;4.20;99.90;;;;;;5082642;28;20117;-56
2023/01/27 01:23:42;;;;;;;13.73;6.88;;;3.90;99.90;;;;;;5078574;28;20049;-56
2023/01/27 01:26:13;;;;;;;14.60;7.65;;;4.10;99.90;;;;;;5077939;28;20040;-57
2023/01/27 01:28:38;;;;;;;15.55;6.60;;;4.20;99.90;;;;;;5078231;28;20036;-56
2023/01/27 01:31:10;;;;;;;13.02;6.53;;;4.10;99.90;;;;;;5078147;28;20045;-56
2023/01/27 01:33:36;;;;;;;13.07;6.47;;;4.20;99.90;;;;;;5078022;28;20045;-58
2023/01/27 01:36:07;;;;;;;12.32;6.55;;;4.00;99.90;;;;;;5078459;28;20040;-56
2023/01/27 01:38:32;;;;;;;14.27;6.40;;;4.00;99.90;;;;;;5078003;28;20049;-57
2023/01/27 01:40:58;;;;;;;15.95;6.75;;;4.30;99.90;;;;;;5080438;28;20070;-56
2023/01/27 01:43:25;;;;;;;13.38;6.65;;;4.30;99.90;;;;;;5063698;28;20084;-57
2023/01/27 01:45:53;;;;;;;15.30;6.18;;;4.10;99.90;;;;;;5081064;28;20044;-55
2023/01/27 01:48:36;;;;;;;12.48;5.43;;;4.30;99.90;;;;;;5081141;28;20056;-56
2023/01/27 01:51:08;;;;;;;14.07;5.72;;;4.30;99.90;;;;;;5081383;28;20050;-57
2023/01/27 01:54:08;;;;;;;13.35;5.60;;;4.00;99.90;;;;;;5082035;28;20040;-56
2023/01/27 01:56:57;;;;;;;14.35;6.30;;;4.30;99.90;;;;;;5080082;28;20052;-57
2023/01/27 01:59:27;;;;;;;10.85;5.43;;;3.90;99.90;;;;;;5081243;28;20048;-57
2023/01/27 02:01:55;;;;;;;13.52;5.80;;;4.30;99.90;;;;;;5081897;28;20055;-57
2023/01/27 02:04:26;;;;;;;11.50;5.00;;;4.00;99.90;;;;;;5081164;28;20064;-56
2023/01/27 02:07:24;;;;;;;13.68;4.85;;;4.20;99.90;;;;;;5081355;28;20049;-57
2023/01/27 02:09:49;;;;;;;11.10;4.63;;;3.90;99.90;;;;;;5074548;28;20080;-55
2023/01/27 02:12:15;;;;;;;12.50;5.07;;;4.10;99.90;;;;;;5080896;28;20056;-56
2023/01/27 02:14:41;;;;;;;14.13;4.53;;;4.10;99.90;;;;;;5063774;28;20078;-56
2023/01/27 02:17:08;;;;;;;9.77;4.05;;;4.40;99.90;;;;;;5080857;28;20049;-56
2023/01/27 02:19:43;;;;;;;8.73;3.72;;;4.10;99.90;;;;;;5081037;28;20119;-57
2023/01/27 02:22:19;;;;;;;12.38;3.90;;;4.00;99.90;;;;;;5080733;28;20052;-56
2023/01/27 02:24:48;;;;;;;10.70;3.05;;;4.00;99.90;;;;;;5080955;28;20490;-57
2023/01/27 02:27:14;;;;;;;10.27;2.80;;;4.00;99.90;;;;;;5080907;28;20044;-56
2023/01/27 02:29:39;;;;;;;6.97;2.40;;;4.20;99.90;;;;;;5080920;28;20055;-57
2023/01/27 02:32:05;;;;;;;8.70;2.33;;;4.20;99.90;;;;;;5081089;28;20067;-57
2023/01/27 02:34:36;;;;;;;6.90;2.13;;;4.10;99.90;;;;;;5080734;28;20041;-57
2023/01/27 02:37:07;;;;;;;7.57;1.90;;;4.30;99.90;;;;;;5062463;28;20048;-57
2023/01/27 02:39:37;;;;;;;9.50;3.45;;;4.30;99.90;;;;;;5080527;28;20067;-57
2023/01/27 02:42:04;;;;;;;10.77;2.28;;;4.20;99.90;;;;;;5080656;28;20051;-56
2023/01/27 02:44:31;;;;;;;12.23;2.83;;;4.00;99.90;;;;;;5080807;28;20083;-56
2023/01/27 02:46:56;;;;;;;7.15;1.85;;;4.00;99.90;;;;;;5080249;28;20033;-55
2023/01/27 02:49:22;;;;;;;6.60;2.30;;;4.20;99.90;;;;;;5080887;28;20116;-56
2023/01/27 02:51:48;;;;;;;7.95;2.38;;;4.20;99.90;;;;;;5078990;28;20041;-56
2023/01/27 02:54:13;;;;;;;7.65;1.83;;;4.10;99.90;;;;;;5080306;28;20053;-57
2023/01/27 02:56:39;;;;;;;8.85;2.05;;;4.10;99.90;;;;;;5079223;28;20100;-56
2023/01/27 02:59:05;;;;;;;7.60;1.90;;;4.10;99.90;;;;;;5100552;28;20040;-56
2023/01/27 03:01:31;;;;;;;7.40;1.70;;;4.20;99.90;;;;;;5082458;28;20563;-56
2023/01/27 03:03:57;;;;;;;4.68;1.45;;;4.20;99.90;;;;;;5100699;28;20424;-57
2023/01/27 03:06:23;;;;;;;7.03;1.88;;;4.20;99.90;;;;;;5100997;28;20511;-57
2023/01/27 03:08:49;;;;;;;7.32;1.70;;;4.10;99.90;;;;;;5100422;28;20040;-56
2023/01/27 03:12:18;;;;;;;5.72;1.73;;;4.10;99.90;;;;;;5100207;28;20044;-57
2023/01/27 03:14:00;;;;;;;6.18;1.50;;;4.10;99.90;;;;;;5081979;28;20157;-56
2023/01/27 03:19:10;;;;;;;6.07;1.67;;;4.00;99.90;;;;;;5100412;28;20062;-56
2023/01/27 03:21:36;;;;;;;5.45;1.80;;;4.00;99.90;;;;;;5099574;28;20044;-56
2023/01/27 03:24:02;;;;;;;7.53;1.80;;;4.10;99.90;;;;;;5099951;28;20040;-58
2023/01/27 03:26:28;;;;;;;6.22;2.83;;;4.00;99.90;;;;;;5099936;28;20055;-57
2023/01/27 03:31:37;;;;;;;8.82;3.30;;;4.10;99.90;;;;;;5100209;28;20058;-57
2023/01/27 03:34:03;;;;;;;6.65;2.75;;;3.90;99.90;;;;;;5099909;28;20091;-57
2023/01/27 03:47:26;;;;;;;7.55;2.55;;;3.90;99.90;;;;;;5099308;28;20047;-56
2023/01/27 03:49:52;;;;;;;6.70;1.80;;;3.80;99.90;;;;;;5099634;28;20071;-57
2023/01/27 03:52:17;;;;;;;6.68;1.73;;;3.80;99.90;;;;;;5081203;28;20059;-56
2023/01/27 03:54:43;;;;;;;5.85;1.80;;;3.90;99.90;;;;;;5083676;28;20139;-57
2023/01/27 03:57:08;;;;;;;8.57;2.28;;;3.80;99.90;;;;;;5079265;28;20079;-56
2023/01/27 03:59:34;;;;;;;8.05;2.13;;;3.50;99.90;;;;;;5060835;28;20047;-56
2023/01/27 04:07:29;;;;;;;6.07;3.08;;;3.70;99.90;;;;;;5078827;28;20063;-56
2023/01/27 04:09:55;;;;;;;6.45;2.97;;;3.70;99.90;;;;;;5079118;28;20464;-56
2023/01/27 04:12:21;;;;;;;6.20;2.20;;;3.70;99.90;;;;;;5060739;28;20133;-56
2023/01/27 04:14:47;;;;;;;7.25;2.45;;;3.80;99.90;;;;;;5079505;28;20123;-56
2023/01/27 04:17:18;;;;;;;7.20;2.25;;;3.80;99.90;;;;;;5078585;28;20472;-56
2023/01/27 04:19:44;;;;;;;4.55;1.77;;;3.80;99.90;;;;;;5078800;28;20055;-56
2023/01/27 04:22:14;;;;;;;6.00;2.17;;;3.60;99.90;;;;;;5078452;28;20056;-56
2023/01/27 04:24:40;;;;;;;11.63;4.80;;;3.70;99.90;;;;;;5078615;28;20104;-57
2023/01/27 04:27:12;;;;;;;11.85;4.10;;;3.80;99.90;;;;;;5078786;28;20037;-57
2023/01/27 04:29:40;;;;;;;11.93;4.18;;;3.70;99.90;;;;;;5078713;28;20782;-57
2023/01/27 04:32:08;;;;;;;12.02;4.63;;;3.80;99.90;;;;;;5079233;28;20049;-56
2023/01/27 04:34:35;;;;;;;13.48;6.50;;;3.70;99.90;;;;;;5078681;28;20095;-56
2023/01/27 04:37:02;;;;;;;8.57;3.70;;;3.70;99.90;;;;;;5078607;28;20540;-56
2023/01/27 04:39:28;;;;;;;13.32;4.60;;;3.80;99.90;;;;;;5078497;28;20071;-56
2023/01/27 04:41:55;;;;;;;10.27;5.10;;;3.80;99.90;;;;;;5064853;28;20488;-56
2023/01/27 04:44:20;;;;;;;9.93;3.38;;;3.70;99.90;;;;;;5058601;28;20416;-56
2023/01/27 04:46:46;;;;;;;8.27;2.92;;;3.80;99.90;;;;;;5058582;28;20100;-56
2023/01/27 04:49:12;;;;;;;9.05;3.40;;;3.80;99.90;;;;;;5058729;28;20037;-57
2023/01/27 04:51:38;;;;;;;7.32;3.20;;;3.80;99.90;;;;;;5058317;28;20147;-56
2023/01/27 04:54:04;;;;;;;7.97;3.08;;;4.50;99.90;;;;;;5068373;28;20083;-57
2023/01/27 04:56:43;;;;;;;7.22;2.30;;;3.70;99.90;;;;;;5078306;28;20048;-57
2023/01/27 04:59:16;;;;;;;6.00;2.63;;;3.70;99.90;;;;;;5060310;28;20524;-57
2023/01/27 05:01:41;;;;;;;5.45;1.90;;;3.60;99.90;;;;;;5078920;28;20059;-57
2023/01/27 05:04:07;;;;;;;7.38;2.50;;;3.70;99.90;;;;;;5078248;28;20546;-57
2023/01/27 05:06:33;;;;;;;5.82;2.45;;;3.70;99.90;;;;;;5078878;28;20546;-57
2023/01/27 05:09:00;;;;;;;4.90;2.20;;;3.80;99.90;;;;;;5077314;28;20755;-57
2023/01/27 05:11:25;;;;;;;5.85;2.30;;;3.80;99.90;;;;;;5078280;28;20059;-57
2023/01/27 05:13:51;;;;;;;7.25;2.40;;;3.70;99.90;;;;;;5078069;28;20037;-57
2023/01/27 05:16:19;;;;;;;9.02;2.17;;;3.80;99.90;;;;;;5080773;28;20104;-56
2023/01/27 05:18:47;;;;;;;6.43;2.45;;;3.70;99.90;;;;;;5081593;28;20047;-56
2023/01/27 05:21:21;;;;;;;6.22;2.60;;;3.80;99.90;;;;;;5063896;28;20610;-56
2023/01/27 05:23:47;;;;;;;9.05;2.60;;;3.80;99.90;;;;;;5082074;28;20090;-56
2023/01/27 05:26:17;;;;;;;6.60;2.15;;;3.70;99.90;;;;;;5081963;28;20046;-56
2023/01/27 05:28:45;;;;;;;4.55;2.00;;;4.30;99.90;;;;;;5063817;28;20511;-56
2023/01/27 05:31:22;;;;;;;6.75;1.88;;;3.80;99.90;;;;;;5081789;28;20072;-57
2023/01/27 05:33:50;;;;;;;8.45;3.95;;;3.70;99.90;;;;;;5081913;28;20051;-57
2023/01/27 05:36:17;;;;;;;6.25;2.10;;;3.80;99.90;;;;;;5082528;28;20048;-56
2023/01/27 05:38:43;;;;;;;4.68;1.92;;;3.60;99.90;;;;;;5081748;28;20041;-56
2023/01/27 05:41:11;;;;;;;6.97;2.30;;;3.60;99.90;;;;;;5081604;28;20146;-57
2023/01/27 05:43:39;;;;;;;5.13;1.80;;;3.70;99.90;;;;;;5063530;28;20079;-56
2023/01/27 05:46:05;;;;;;;6.50;1.90;;;3.60;99.90;;;;;;5063677;28;20041;-56
2023/01/27 05:48:31;;;;;;;6.70;2.03;;;3.70;99.90;;;;;;5081525;28;20127;-56
2023/01/27 05:50:58;;;;;;;6.85;2.22;;;3.70;99.90;;;;;;5081602;28;20043;-56
2023/01/27 05:53:24;;;;;;;5.65;2.30;;;3.70;99.90;;;;;;5077533;28;20084;-56
2023/01/27 05:55:50;;;;;;;8.20;2.00;;;3.80;99.90;;;;;;5061260;28;20052;-55
2023/01/27 05:58:16;;;;;;;9.02;2.78;;;3.70;99.90;;;;;;5061345;28;20044;-57
2023/01/27 06:00:43;;;;;;;8.07;2.60;;;4.30;99.90;;;;;;5061344;28;20064;-56
2023/01/27 06:03:09;;;;;;;8.90;2.10;;;4.40;99.90;;;;;;5061240;28;20060;-57
2023/01/27 06:05:34;;;;;;;6.63;1.98;;;3.70;99.90;;;;;;5061272;28;20087;-57
2023/01/27 06:08:00;;;;;;;6.72;1.92;;;3.60;99.90;;;;;;5061155;28;20053;-56
2023/01/27 06:10:25;;;;;;;6.47;2.38;;;3.70;99.90;;;;;;5061805;28;20076;-57
2023/01/27 06:12:51;;;;;;;5.22;1.80;;;3.60;99.90;;;;;;5061059;28;20045;-57
2023/01/27 06:15:17;;;;;;;6.88;1.77;;;3.70;99.90;;;;;;5061420;28;20052;-56
2023/01/27 06:17:42;;;;;;;11.85;5.07;;;3.70;99.90;;;;;;5042858;28;20052;-57
2023/01/27 06:20:09;;;;;;;7.85;2.88;;;3.70;99.90;;;;;;5060757;28;20049;-56
2023/01/27 06:22:34;;;;;;;7.30;2.30;;;3.70;99.90;;;;;;5068230;28;20548;-57
2023/01/27 06:25:00;;;;;;;7.88;3.05;;;3.60;99.90;;;;;;5080855;28;20062;-56
2023/01/27 06:27:26;;;;;;;4.55;1.73;;;3.50;99.90;;;;;;5081184;28;20806;-56
2023/01/27 06:29:51;;;;;;;7.05;2.13;;;3.60;99.90;;;;;;5080884;28;20137;-57
2023/01/27 06:32:17;;;;;;;6.03;1.70;;;3.60;99.90;;;;;;5081141;28;20049;-56
2023/01/27 06:34:43;;;;;;;4.13;1.55;;;3.50;99.90;;;;;;5080775;28;20047;-57
2023/01/27 06:37:08;;;;;;;4.97;1.58;;;3.60;99.90;;;;;;5080524;28;20076;-56
2023/01/27 06:39:34;;;;;;;6.60;1.70;;;3.50;99.90;;;;;;5080367;28;20041;-57
2023/01/27 06:41:59;;;;;;;9.05;1.88;;;3.40;99.90;;;;;;5080326;28;20513;-56
2023/01/27 06:44:25;;;;;;;6.78;2.00;;;3.40;99.90;;;;;;5081028;28;20125;-57
2023/01/27 06:46:52;;;;;;;6.22;1.70;;;3.40;99.90;;;;;;5080634;28;20059;-57
2023/01/27 06:49:18;;;;;;;6.07;1.90;;;3.30;99.90;;;;;;5080752;28;20044;-56
2023/01/27 06:51:47;;;;;;;7.55;2.22;;;3.40;99.90;;;;;;5080249;28;20060;-57
2023/01/27 06:54:12;;;;;;;8.90;3.40;;;3.20;99.90;;;;;;5080277;28;20609;-56
2023/01/27 06:56:38;;;;;;;7.20;1.95;;;3.30;99.90;;;;;;5061923;28;20060;-57
2023/01/27 06:59:03;;;;;;;5.72;1.85;;;3.60;99.90;;;;;;5080077;28;20048;-57
2023/01/27 07:01:29;;;;;;;4.28;1.48;;;3.20;99.90;;;;;;5076814;28;20049;-56
2023/01/27 07:03:55;;;;;;;6.30;1.83;;;3.20;99.90;;;;;;5076984;28;20100;-56
2023/01/27 07:06:20;;;;;;;7.50;1.50;;;3.20;99.90;;;;;;5077177;28;20052;-56
2023/01/27 07:08:49;;;;;;;4.88;1.67;;;3.30;99.90;;;;;;5076373;28;20045;-56
2023/01/27 07:11:15;;;;;;;3.63;1.30;;;3.30;99.90;;;;;;5076346;28;20096;-57
2023/01/27 07:13:40;;;;;;;7.88;1.60;;;3.20;99.90;;;;;;5076328;28;20111;-56
2023/01/27 07:16:06;;;;;;;5.53;1.40;;;3.30;99.90;;;;;;5076474;28;20055;-56
2023/01/27 07:18:32;;;;;;;5.65;2.25;;;3.30;99.90;;;;;;5076309;28;20095;-57
2023/01/27 07:20:57;;;;;;;5.63;1.60;;;3.20;99.90;;;;;;5076229;28;20047;-57
2023/01/27 07:23:23;;;;;;;5.82;2.05;;;3.80;99.90;;;;;;5061888;28;20084;-55
2023/01/27 07:25:49;;;;;;;6.32;1.85;;;3.30;99.90;;;;;;5038122;28;20049;-56
2023/01/27 07:28:14;;;;;;;8.38;1.90;;;3.30;99.90;;;;;;5056297;28;20041;-56
2023/01/27 07:30:42;;;;;;;4.90;1.17;;;3.40;99.90;;;;;;5055760;28;20029;-56
2023/01/27 07:33:09;;;;;;;4.18;1.38;;;3.40;99.90;;;;;;5040502;28;20080;-56
2023/01/27 07:35:36;;;;;;;4.95;1.30;;;3.50;99.90;;;;;;5059414;28;20138;-56
2023/01/27 07:38:02;;;;;;;3.15;1.33;;;3.50;99.90;;;;;;5058471;28;20603;-56
2023/01/27 07:40:28;;;;;;;3.80;1.40;;;3.40;99.90;;;;;;5059452;28;20513;-57
2023/01/27 07:42:58;;;;;;;5.80;1.50;;;3.40;99.90;;;;;;5059242;28;20037;-57
2023/01/27 07:45:23;;;;;;;5.47;1.40;;;3.50;99.90;;;;;;5059368;28;20551;-57
2023/01/27 07:47:49;;;;;;;5.03;1.23;;;3.40;99.90;;;;;;5059126;28;20517;-60
2023/01/27 07:50:15;;;;;;;5.22;1.50;;;3.50;99.90;;;;;;5059230;28;20122;-57
2023/01/27 07:52:40;;;;;;;5.82;1.30;;;3.50;99.90;;;;;;5059308;28;20049;-57
2023/01/27 07:55:07;;;;;;;5.97;1.30;;;3.50;99.90;;;;;;5052542;28;20033;-56
2023/01/27 07:57:33;;;;;;;5.80;1.30;;;3.40;99.90;;;;;;5059507;28;20051;-56
2023/01/27 07:59:58;;;;;;;5.00;1.45;;;3.40;99.90;;;;;;5058979;28;20148;-57
2023/01/27 08:02:25;;;;;;;5.45;1.40;;;3.50;99.90;;;;;;5058156;28;20060;-57
2023/01/27 08:04:50;;;;;;;6.30;1.52;;;3.60;99.90;;;;;;5059046;28;20644;-56
2023/01/27 08:07:16;;;;;;;5.07;1.20;;;3.50;99.90;;;;;;5058757;28;20045;-56
2023/01/27 08:09:42;;;;;;;4.90;1.38;;;3.50;99.90;;;;;;5059133;28;20045;-56
2023/01/27 08:12:07;;;;;;;5.10;1.65;;;3.80;99.90;;;;;;5058602;28;20083;-57
2023/01/27 08:14:33;;;;;;;4.20;1.38;;;3.50;99.90;;;;;;5056856;28;20044;-56
2023/01/27 08:16:59;;;;;;;6.07;1.40;;;3.50;99.90;;;;;;5055337;28;20044;-57
2023/01/27 08:19:25;;;;;;;7.93;1.73;;;3.70;99.90;;;;;;5055944;28;20441;-56
2023/01/27 08:21:51;;;;;;;7.65;1.85;;;3.60;99.90;;;;;;5055318;28;20061;-56
2023/01/27 08:24:16;;;;;;;5.45;1.58;;;3.70;99.90;;;;;;5073389;28;20114;-56
2023/01/27 08:26:42;;;;;;;5.60;1.45;;;3.70;99.90;;;;;;5073750;28;20044;-57
2023/01/27 08:29:08;;;;;;;8.07;1.80;;;3.60;99.90;;;;;;5075234;28;20539;-56
2023/01/27 08:31:33;;;;;;;7.68;1.60;;;3.60;99.90;;;;;;5075890;28;20079;-56
2023/01/27 08:33:59;;;;;;;4.80;1.30;;;3.80;99.90;;;;;;5075215;28;20045;-56
2023/01/27 08:36:25;;;;;;;8.35;2.00;;;4.00;99.90;;;;;;5074791;28;20051;-57
2023/01/27 08:38:51;;;;;;;6.40;1.50;;;3.80;99.90;;;;;;5073485;28;20048;-57
2023/01/27 08:41:23;;;;;;;9.88;2.03;;;3.90;99.90;;;;;;5074130;28;20055;-56
2023/01/27 08:43:49;;;;;;;;;;;3.70;99.90;;;;;;5074537;28;20062;-56
2023/01/27 08:46:16;;;;;;;7.38;2.95;;;3.80;99.90;;;;;;5075049;28;19987;-57
2023/01/27 08:48:42;;;;;;;11.70;2.08;;;3.80;99.90;;;;;;5074775;28;20100;-56
2023/01/27 08:51:09;;;;;;;5.40;1.65;;;3.80;99.90;;;;;;5077385;28;20051;-56
2023/01/27 08:53:35;;;;;;;7.57;1.70;;;3.80;99.90;;;;;;5073435;28;20068;-57
2023/01/27 08:56:05;;;;;;;9.48;2.05;;;4.00;99.90;;;;;;5079284;28;20045;-56
2023/01/27 08:58:32;;;;;;;7.53;1.80;;;4.00;99.90;;;;;;5078978;28;20945;-57
2023/01/27 09:01:02;;;;;;;7.20;1.60;;;3.80;99.90;;;;;;5079105;28;20058;-57
2023/01/27 09:03:28;;;;;;;4.57;1.52;;;4.00;99.90;;;;;;5078505;28;20681;-56
2023/01/27 09:05:54;;;;;;;6.38;1.75;;;4.00;99.90;;;;;;5079391;28;20623;-56
2023/01/27 09:08:20;;;;;;;6.65;1.58;;;4.10;99.90;;;;;;5078984;28;20138;-55
2023/01/27 09:10:46;;;;;;;9.50;2.33;;;4.10;99.90;;;;;;5079245;28;20075;-57
2023/01/27 09:13:11;;;;;;;8.88;1.80;;;4.10;99.90;;;;;;5078972;28;20048;-56
2023/01/27 09:15:37;;;;;;;8.48;2.20;;;4.10;99.90;;;;;;5078507;28;20163;-57
2023/01/27 09:18:04;;;;;;;6.35;1.55;;;4.00;99.90;;;;;;5078466;28;20128;-56
2023/01/27 09:20:30;;;;;;;5.80;1.58;;;3.90;99.90;;;;;;5078938;28;20028;-56
2023/01/27 09:22:56;;;;;;;8.23;2.17;;;4.10;99.90;;;;;;5078966;28;20090;-57
2023/01/27 09:25:22;;;;;;;7.68;1.95;;;4.00;99.90;;;;;;5078726;28;20054;-57
2023/01/27 09:27:48;;;;;;;7.50;2.33;;;4.20;99.90;;;;;;5078464;28;20075;-56
2023/01/27 09:30:15;;;;;;;6.20;1.80;;;3.90;99.90;;;;;;5060695;28;20040;-56
2023/01/27 09:32:41;;;;;;;10.02;2.20;;;4.20;99.90;;;;;;5078335;28;20076;-57
2023/01/27 09:35:07;;;;;;;9.73;2.90;;;4.20;99.90;;;;;;5078438;28;20051;-57
2023/01/27 09:37:42;;;;;;;7.15;2.05;;;4.20;99.90;;;;;;5078395;28;20044;-57
2023/01/27 09:40:32;;;;;;;6.10;1.70;;;4.10;99.90;;;;;;5060050;28;20068;-56
2023/01/27 09:43:35;;;;;;;7.03;1.77;;;4.20;99.90;;;;;;5029538;28;20060;-56
2023/01/27 09:46:37;;;;;;;8.05;1.50;;;4.40;99.90;;;;;;5073674;28;20056;-57
2023/01/27 09:49:33;;;;;;;8.10;1.58;;;4.20;99.90;;;;;;5080807;28;20055;-56
2023/01/27 09:52:26;;;;;;;8.10;1.77;;;4.40;99.90;;;;;;5080255;28;20517;-56
2023/01/27 09:54:57;;;;;;;6.63;1.58;;;4.60;99.90;;;;;;5075089;28;20100;-56
2023/01/27 09:57:51;;;;;;;8.02;1.77;;;4.40;99.90;;;;;;5081942;28;20028;-56
2023/01/27 10:00:31;;;;;;;3.85;1.40;;;4.60;99.90;;;;;;5081505;28;20094;-56
2023/01/27 10:03:04;;;;;;;5.97;1.75;;;4.60;99.90;;;;;;5081182;28;20044;-56
2023/01/27 10:05:44;;;;;;;6.90;1.48;;;4.50;99.90;;;;;;5081489;28;20114;-56
2023/01/27 10:08:18;;;;;;;10.43;1.92;;;4.60;99.90;;;;;;5081181;28;20412;-57
2023/01/27 10:11:18;;;;;;;5.30;1.65;;;4.60;99.90;;;;;;5081654;28;20135;-56
2023/01/27 10:14:08;;;;;;;5.93;1.55;;;4.60;99.90;;;;;;5074918;28;20056;-56
2023/01/27 10:16:47;;;;;;;8.98;1.67;;;4.40;99.90;;;;;;5081095;28;20052;-56
2023/01/27 10:19:25;;;;;;;9.10;2.03;;;4.50;99.90;;;;;;5079090;28;20048;-56
2023/01/27 10:22:11;;;;;;;6.72;1.83;;;4.50;99.90;;;;;;5080007;28;20078;-57
2023/01/27 10:25:06;;;;;;;6.80;1.80;;;4.40;99.90;;;;;;5076573;28;20075;-58
2023/01/27 10:27:36;;;;;;;5.82;1.88;;;4.60;99.90;;;;;;5073674;28;20037;-56
2023/01/27 10:30:04;;;;;;;7.72;1.80;;;4.80;99.90;;;;;;5071108;28;20033;-57
2023/01/27 10:32:45;;;;;;;5.90;1.60;;;4.60;99.90;;;;;;5080509;28;20225;-57
2023/01/27 10:35:22;;;;;;;4.93;1.52;;;4.80;99.90;;;;;;5078747;28;20037;-56
2023/01/27 10:38:11;;;;;;;5.60;1.80;;;4.70;99.90;;;;;;5080510;28;20052;-57
2023/01/27 10:40:58;;;;;;;5.28;1.23;;;4.90;99.90;;;;;;5080850;28;20519;-56
2023/01/27 10:43:42;;;;;;;5.40;1.80;;;4.80;99.90;;;;;;5080554;28;20045;-57
2023/01/27 10:46:31;;;;;;;3.80;1.38;;;4.80;99.90;;;;;;5080195;28;20048;-56
2023/01/27 10:49:09;;;;;;;5.25;1.60;;;4.90;99.90;;;;;;5080385;28;20123;-56
2023/01/27 10:51:54;;;;;;;3.63;1.40;;;4.90;99.90;;;;;;5080288;28;20048;-56
2023/01/27 10:54:24;;;;;;;4.00;1.30;;;5.00;99.90;;;;;;5078953;28;20041;-56
2023/01/27 10:56:54;;;;;;;4.95;1.50;;;5.10;99.90;;;;;;5080594;28;20076;-57
2023/01/27 10:59:39;;;;;;;2.85;1.23;;;4.90;99.90;;;;;;5080246;28;20056;-57
2023/01/27 11:02:28;;;;;;;3.42;1.58;;;4.90;99.90;;;;;;5062523;28;20052;-56
2023/01/27 11:04:58;;;;;;;5.72;1.40;;;5.00;99.90;;;;;;5079886;28;20500;-56
2023/01/27 11:07:24;;;;;;;4.05;1.60;;;4.90;99.90;;;;;;5080014;28;20041;-56
2023/01/27 11:09:58;;;;;;;2.95;1.35;;;4.90;99.90;;;;;;5080288;28;20901;-56
2023/01/27 11:12:36;;;;;;;3.72;1.70;;;4.80;99.90;;;;;;5079445;28;20052;-56
2023/01/27 11:15:15;;;;;;;2.40;1.30;;;4.70;99.90;;;;;;5080101;28;20083;-57
2023/01/27 11:17:57;;;;;;;4.00;1.40;;;4.70;99.90;;;;;;5079906;28;20074;-56
2023/01/27 11:20:22;;;;;;;2.65;1.23;;;4.70;99.90;;;;;;5079515;28;20048;-57
2023/01/27 11:23:10;;;;;;;5.35;2.40;;;4.70;99.90;;;;;;5080152;28;20079;-56
2023/01/27 11:26:00;;;;;;;4.20;1.90;;;4.60;99.90;;;;;;5079140;28;20076;-56
2023/01/27 11:28:47;;;;;;;5.80;2.00;;;4.60;99.90;;;;;;5079808;28;20045;-56
2023/01/27 11:31:54;;;;;;;5.80;2.17;;;4.60;99.90;;;;;;5061733;28;20587;-56
2023/01/27 11:34:23;;;;;;;4.55;2.20;;;4.60;99.90;;;;;;5078963;28;20059;-55
2023/01/27 11:36:49;;;;;;;5.15;2.30;;;4.60;99.90;;;;;;5079593;28;20056;-56
2023/01/27 11:39:16;;;;;;;5.95;2.42;;;4.60;99.90;;;;;;5078921;28;20055;-56
2023/01/27 11:41:52;;;;;;;5.32;2.58;;;4.60;99.90;;;;;;5078670;28;20167;-56
2023/01/27 11:44:21;;;;;;;6.28;2.45;;;4.50;99.90;;;;;;5079091;28;20491;-56
2023/01/27 11:46:48;;;;;;;5.75;2.38;;;4.50;99.90;;;;;;5060939;28;20049;-56
2023/01/27 11:49:22;;;;;;;7.43;2.97;;;4.50;99.90;;;;;;5079385;28;20071;-56
2023/01/27 11:51:48;;;;;;;5.88;2.78;;;4.50;99.90;;;;;;5079297;28;20127;-56
2023/01/27 11:54:20;;;;;;;5.85;3.15;;;4.50;99.90;;;;;;5078940;28;20060;-55
2023/01/27 11:56:48;;;;;;;7.10;3.30;;;4.40;99.90;;;;;;5078866;28;20070;-56
2023/01/27 11:59:22;;;;;;;5.90;2.97;;;4.40;99.90;;;;;;5078715;28;20066;-56
2023/01/27 12:01:58;;;;;;;6.60;3.22;;;4.40;99.90;;;;;;5079533;28;20060;-55
2023/01/27 12:04:50;;;;;;;7.43;3.33;;;4.40;99.90;;;;;;5078788;28;20052;-57
2023/01/27 12:07:22;;;;;;;;;;;4.40;99.90;;;;;;5079223;28;20036;-56
2023/01/27 12:09:48;;;;;;;6.22;3.15;;;4.40;99.90;;;;;;5078765;28;20145;-56
2023/01/27 12:12:13;;;;;;;6.35;3.35;;;4.30;99.90;;;;;;5078919;28;20059;-56
2023/01/27 12:14:53;;;;;;;6.53;3.65;;;4.40;99.90;;;;;;5079028;28;20032;-56
2023/01/27 12:17:24;;;;;;;6.60;3.58;;;4.40;99.90;;;;;;5075359;28;20059;-56
2023/01/27 12:19:52;;;;;;;6.90;3.85;;;4.30;99.90;;;;;;5078152;28;20036;-56
2023/01/27 12:22:37;;;;;;;9.40;3.58;;;4.40;99.90;;;;;;5073273;28;20057;-56
2023/01/27 12:25:13;;;;;;;6.78;3.60;;;4.30;99.90;;;;;;5061953;28;20529;-56
2023/01/27 12:27:50;;;;;;;6.28;3.53;;;4.30;99.90;;;;;;5067905;28;20112;-56
2023/01/27 12:30:29;;;;;;;7.20;3.88;;;4.30;99.90;;;;;;5067442;28;20041;-57
2023/01/27 12:32:56;;;;;;;7.22;4.53;;;4.30;99.90;;;;;;5058799;28;20072;-56
2023/01/27 12:35:35;;;;;;;7.40;4.68;;;4.20;99.90;;;;;;5058533;28;20069;-56
2023/01/27 12:38:00;;;;;;;9.43;4.45;;;4.30;99.90;;;;;;5061267;28;20036;-56
2023/01/27 12:40:28;;;;;;;7.53;4.85;;;4.20;99.90;;;;;;5067988;28;20044;-56
2023/01/27 12:43:20;;;;;;;7.00;4.68;;;4.20;99.90;;;;;;5067427;28;20086;-56
2023/01/27 12:46:11;;;;;;;6.50;4.15;;;4.20;99.90;;;;;;5067181;28;20067;-56
2023/01/27 12:48:46;;;;;;;7.45;3.60;;;4.30;99.90;;;;;;5050652;28;20033;-57
2023/01/27 12:51:19;;;;;;;5.20;2.63;;;4.30;99.90;;;;;;5068160;28;20059;-56
2023/01/27 12:53:46;;;;;;;5.70;3.00;;;4.30;99.90;;;;;;5067624;28;20067;-56
2023/01/27 12:56:21;;;;;;;6.22;3.13;;;4.30;99.90;;;;;;5068107;28;20067;-56
2023/01/27 12:58:53;;;;;;;5.80;3.38;;;4.30;99.90;;;;;;5067459;28;20029;-56
2023/01/27 13:01:26;;;;;;;6.50;3.35;;;4.40;99.90;;;;;;5072902;28;20049;-56
2023/01/27 13:03:56;;;;;;;5.22;3.20;;;4.30;99.90;;;;;;5076736;28;20044;-56
2023/01/27 13:06:46;;;;;;;5.53;3.17;;;4.40;99.90;;;;;;5049674;28;20041;-56
2023/01/27 13:09:25;;;;;;;6.30;2.90;;;4.40;99.90;;;;;;5046875;28;20056;-57
2023/01/27 13:11:52;;;;;;;7.43;2.80;;;4.40;99.90;;;;;;5058282;28;20091;-56
2023/01/27 13:14:18;;;;;;;7.03;2.95;;;4.40;99.90;;;;;;5058576;28;20049;-56
2023/01/27 13:16:54;;;;;;;6.75;3.13;;;4.40;99.90;;;;;;5058147;28;20079;-56
2023/01/27 13:19:33;;;;;;;6.80;3.30;;;4.40;99.90;;;;;;5058563;28;20516;-56
2023/01/27 13:21:59;;;;;;;5.82;3.17;;;4.30;99.90;;;;;;5057903;28;20041;-56
2023/01/27 13:24:39;;;;;;;6.22;3.13;;;4.40;99.90;;;;;;5057985;28;20053;-57
2023/01/27 13:27:13;;;;;;;6.38;3.38;;;4.30;99.90;;;;;;5058787;28;20060;-56
2023/01/27 13:29:41;;;;;;;6.32;3.17;;;4.40;99.90;;;;;;5058115;28;20403;-57
2023/01/27 13:32:24;;;;;;;5.88;3.05;;;4.30;99.90;;;;;;5058418;28;20083;-56
2023/01/27 13:35:07;;;;;;;6.30;3.10;;;4.40;99.90;;;;;;5057916;28;20045;-57
2023/01/27 13:37:39;;;;;;;7.07;3.58;;;4.30;99.90;;;;;;5061150;28;20045;-56
2023/01/27 13:40:18;;;;;;;6.68;3.90;;;4.30;99.90;;;;;;5062129;28;20032;-56
2023/01/27 13:43:08;;;;;;;7.50;4.00;;;4.40;99.90;;;;;;5061507;28;20047;-57